Time;durP1;ratioP1;P1;durP2;ratioP2;P2;SDS_P1;SDS_P2;PMS_P1;PMS_P2;Temp;Humidity;BMP_temperature;BMP_pressure;BME280_temperature;BME280_humidity;BME280_pressure;Samples;Min_cycle;Max_cycle;Signal;HPM_P1;HPM_P2
2021/05/29 00:02:09;;;;;;;0.30;0.30;;;;;;;10.11;80.57;102607.75;4968222;28;20210;-76
2021/05/29 00:04:35;;;;;;;0.30;0.30;;;;;;;10.12;80.97;102603.38;4984686;28;20389;-76
2021/05/29 00:07:00;;;;;;;0.20;0.20;;;;;;;10.20;81.18;102617.72;4967498;28;20041;-76
2021/05/29 00:09:26;;;;;;;0.20;0.20;;;;;;;10.23;80.75;102621.97;4984717;28;20046;-77
2021/05/29 00:11:51;;;;;;;0.28;0.28;;;;;;;10.19;81.61;102623.00;4977515;28;20489;-77
2021/05/29 00:14:17;;;;;;;0.30;0.30;;;;;;;10.26;81.61;102620.06;4992274;28;20046;-76
2021/05/29 00:16:43;;;;;;;0.30;0.30;;;;;;;10.22;81.90;102622.88;4991427;28;20038;-77
2021/05/29 00:19:08;;;;;;;0.30;0.30;;;;;;;9.98;82.00;102596.22;4978378;28;20054;-77
2021/05/29 00:21:34;;;;;;;0.32;0.32;;;;;;;10.26;82.30;102621.84;4972172;28;20042;-78
2021/05/29 00:24:00;;;;;;;0.28;0.28;;;;;;;10.26;82.42;102627.03;4956933;28;20037;-77
2021/05/29 00:26:25;;;;;;;0.22;0.22;;;;;;;10.27;82.54;102620.91;4984737;28;20092;-77
2021/05/29 00:28:52;;;;;;;0.30;0.30;;;;;;;10.18;81.44;102605.69;4969391;28;20113;-77
2021/05/29 00:31:19;;;;;;;0.28;0.28;;;;;;;10.22;81.37;102602.88;4984771;28;20053;-77
2021/05/29 00:33:45;;;;;;;0.30;0.30;;;;;;;10.39;81.40;102622.06;4968038;28;20571;-77
2021/05/29 00:36:11;;;;;;;0.30;0.30;;;;;;;10.35;81.34;102616.16;4983774;28;20042;-77
2021/05/29 00:38:36;;;;;;;0.20;0.20;;;;;;;10.21;80.91;102587.34;4969073;28;20047;-77
2021/05/29 00:41:09;;;;;;;0.30;0.30;;;;;;;10.38;80.90;102616.00;4985205;28;20046;-77
2021/05/29 00:43:36;;;;;;;0.30;0.30;;;;;;;10.41;81.17;102633.25;4961951;28;20046;-77
2021/05/29 00:46:02;;;;;;;0.30;0.30;;;;;;;10.48;81.09;102629.44;4987135;28;20034;-77
2021/05/29 00:48:28;;;;;;;0.35;0.35;;;;;;;10.41;81.44;102617.63;4966776;28;25169;-76
2021/05/29 00:50:59;;;;;;;0.30;0.30;;;;;;;10.31;81.14;102600.78;4981978;28;20440;-76
2021/05/29 00:53:26;;;;;;;0.30;0.30;;;;;;;10.31;81.14;102606.81;4969110;28;20038;-76
2021/05/29 00:55:53;;;;;;;0.20;0.20;;;;;;;10.37;81.44;102621.31;4998005;28;20026;-76
2021/05/29 00:58:20;;;;;;;0.30;0.30;;;;;;;10.25;81.95;102607.13;4956000;28;20124;-77
2021/05/29 01:00:46;;;;;;;0.30;0.30;;;;;;;10.36;81.71;102623.06;4970127;28;20105;-77
2021/05/29 01:03:11;;;;;;;0.30;0.30;;;;;;;10.27;81.82;102597.47;4982534;28;20090;-77
2021/05/29 01:05:37;;;;;;;0.50;0.38;;;;;;;10.44;81.27;102622.72;4932920;28;20340;-77
2021/05/29 01:08:03;;;;;;;0.30;0.30;;;;;;;10.50;81.67;102631.06;4982962;28;20073;-77
2021/05/29 01:10:29;;;;;;;0.30;0.30;;;;;;;10.39;81.92;102617.69;4969179;28;20072;-77
2021/05/29 01:12:57;;;;;;;0.20;0.20;;;;;;;10.52;81.56;102620.56;4984379;28;20030;-76
2021/05/29 01:15:23;;;;;;;0.30;0.30;;;;;;;10.47;81.10;102610.38;4969882;28;20035;-77
2021/05/29 01:17:48;;;;;;;0.30;0.30;;;;;;;10.50;81.36;102615.44;4992794;28;21430;-76
2021/05/29 01:20:15;;;;;;;0.30;0.30;;;;;;;10.56;81.88;102617.72;4981547;28;20055;-76
2021/05/29 01:22:47;;;;;;;0.30;0.30;;;;;;;10.56;82.04;102614.28;4984321;28;20034;-76
2021/05/29 01:25:30;;;;;;;0.30;0.30;;;;;;;10.51;81.55;102604.09;4968081;28;20122;-77
2021/05/29 01:28:11;;;;;;;0.30;0.30;;;;;;;10.55;82.29;102610.81;4980025;28;20536;-77
2021/05/29 01:30:48;;;;;;;0.30;0.30;;;;;;;10.64;82.30;102619.13;4962345;28;20069;-76
2021/05/29 01:33:22;;;;;;;0.25;0.25;;;;;;;10.52;81.74;102597.97;4982270;28;20080;-76
2021/05/29 01:35:48;;;;;;;;;;;;;;;10.66;81.81;102628.53;4968224;28;21758;-76
2021/05/29 01:38:15;;;;;;;0.30;0.30;;;;;;;10.58;82.35;102610.66;4974719;28;20364;-76
2021/05/29 01:40:42;;;;;;;0.30;0.30;;;;;;;10.44;81.83;102581.88;4987915;28;20450;-76
2021/05/29 01:43:10;;;;;;;0.30;0.30;;;;;;;10.53;81.83;102601.41;4967086;28;20053;-76
2021/05/29 01:45:37;;;;;;;0.40;0.40;;;;;;;10.57;82.28;102628.97;4953872;28;20030;-76
2021/05/29 01:48:05;;;;;;;0.30;0.30;;;;;;;10.35;82.49;102597.09;4997027;28;20042;-76
2021/05/29 01:50:32;;;;;;;0.20;0.20;;;;;;;10.53;82.24;102630.06;4991307;28;20046;-76
2021/05/29 01:53:02;;;;;;;0.30;0.30;;;;;;;10.48;82.24;102619.88;4979175;28;20035;-77
2021/05/29 01:55:31;;;;;;;0.22;0.22;;;;;;;10.50;82.70;102625.84;4989933;28;20069;-78
2021/05/29 01:57:57;;;;;;;0.43;0.43;;;;;;;10.46;82.55;102616.50;4976864;28;20049;-77
2021/05/29 02:00:28;;;;;;;0.20;0.20;;;;;;;10.36;82.70;102610.03;4966102;28;20038;-77
2021/05/29 02:02:55;;;;;;;0.20;0.20;;;;;;;10.41;82.62;102617.63;4990223;28;20057;-77
2021/05/29 02:05:23;;;;;;;0.20;0.20;;;;;;;10.37;82.73;102614.34;4988619;28;20038;-77
2021/05/29 02:07:50;;;;;;;0.30;0.30;;;;;;;10.38;82.91;102622.97;4954485;28;20688;-77
2021/05/29 02:10:19;;;;;;;0.30;0.30;;;;;;;10.19;83.41;102608.22;4984841;28;20117;-77
2021/05/29 02:12:48;;;;;;;0.20;0.20;;;;;;;10.26;83.28;102622.69;4974363;28;20030;-76
2021/05/29 02:15:36;;;;;;;0.20;0.20;;;;;;;10.18;83.13;102616.09;4988195;28;20112;-77
2021/05/29 02:18:05;;;;;;;0.20;0.20;;;;;;;10.27;83.64;102626.13;4963067;28;20271;-77
2021/05/29 02:20:47;;;;;;;0.30;0.30;;;;;;;10.20;83.48;102622.91;4988469;28;20492;-76
2021/05/29 02:23:24;;;;;;;0.30;0.30;;;;;;;10.15;83.44;102611.88;4971523;28;20026;-77
2021/05/29 02:25:55;;;;;;;0.30;0.30;;;;;;;10.17;83.33;102620.47;4987015;28;20041;-77
2021/05/29 02:28:21;;;;;;;0.40;0.40;;;;;;;10.18;83.22;102621.31;4985218;28;20431;-76
2021/05/29 02:30:48;;;;;;;0.30;0.30;;;;;;;9.88;83.16;102568.97;4988042;28;20061;-76
2021/05/29 02:33:14;;;;;;;0.20;0.20;;;;;;;10.05;83.36;102595.00;4970644;28;20034;-76
2021/05/29 02:35:40;;;;;;;0.30;0.30;;;;;;;10.15;83.91;102614.50;4987669;28;20038;-76
2021/05/29 02:38:07;;;;;;;0.30;0.30;;;;;;;10.15;84.20;102614.50;4970640;28;20041;-76
2021/05/29 02:40:34;;;;;;;0.30;0.30;;;;;;;10.15;83.34;102609.28;5002325;28;20034;-76
2021/05/29 02:43:00;;;;;;;0.20;0.20;;;;;;;9.97;83.34;102589.34;4976286;28;20030;-76
2021/05/29 02:45:26;;;;;;;0.20;0.20;;;;;;;10.16;83.57;102615.34;4968823;28;20045;-76
2021/05/29 02:47:53;;;;;;;0.30;0.30;;;;;;;10.04;83.75;102608.09;4962805;28;20046;-77
2021/05/29 02:50:19;;;;;;;0.30;0.30;;;;;;;9.99;83.86;102601.34;4986801;28;20050;-77
2021/05/29 02:52:45;;;;;;;0.40;0.40;;;;;;;10.11;83.69;102631.19;4971593;28;20038;-75
2021/05/29 02:55:15;;;;;;;0.30;0.30;;;;;;;10.03;83.73;102620.28;4985363;28;20061;-76
2021/05/29 02:57:41;;;;;;;0.30;0.30;;;;;;;10.01;84.70;102619.50;4971299;28;20128;-76
2021/05/29 03:00:09;;;;;;;0.40;0.40;;;;;;;9.82;84.62;102603.91;5001053;28;20038;-76
2021/05/29 03:02:35;;;;;;;0.30;0.30;;;;;;;9.95;84.54;102620.66;4976592;28;20505;-76
2021/05/29 03:05:00;;;;;;;0.38;0.38;;;;;;;10.09;84.28;102639.97;4969189;28;20036;-77
2021/05/29 03:07:27;;;;;;;0.40;0.30;;;;;;;10.04;84.57;102628.91;4995466;28;20038;-76
2021/05/29 03:09:52;;;;;;;0.40;0.30;;;;;;;9.94;84.36;102613.75;4965391;28;20035;-75
2021/05/29 03:12:18;;;;;;;0.30;0.30;;;;;;;10.10;84.31;102633.84;5000787;28;20042;-75
2021/05/29 03:14:43;;;;;;;0.45;0.30;;;;;;;9.95;84.55;102615.44;4969009;28;20455;-75
2021/05/29 03:17:09;;;;;;;0.30;0.30;;;;;;;10.00;84.64;102633.44;5001938;28;20069;-77
2021/05/29 03:19:34;;;;;;;0.30;0.30;;;;;;;10.09;84.58;102651.25;4958866;28;20049;-75
2021/05/29 03:22:00;;;;;;;0.20;0.20;;;;;;;10.00;84.17;102630.84;4985378;28;20520;-76
2021/05/29 03:24:25;;;;;;;0.30;0.30;;;;;;;10.09;84.49;102642.59;4989154;28;20497;-76
2021/05/29 03:26:51;;;;;;;0.30;0.30;;;;;;;9.94;84.86;102631.97;4978381;28;20042;-75
2021/05/29 03:29:17;;;;;;;0.30;0.30;;;;;;;10.11;84.47;102646.81;4985801;28;20401;-75
2021/05/29 03:31:42;;;;;;;0.30;0.30;;;;;;;9.95;84.65;102632.81;5004774;28;20650;-76
2021/05/29 03:34:09;;;;;;;0.30;0.30;;;;;;;10.06;84.64;102640.97;4984704;28;20038;-75
2021/05/29 03:36:35;;;;;;;0.30;0.30;;;;;;;10.19;84.53;102655.06;4972892;28;20503;-76
2021/05/29 03:39:00;;;;;;;0.40;0.40;;;;;;;10.15;84.52;102647.50;5001522;28;20038;-76
2021/05/29 03:41:26;;;;;;;0.20;0.20;;;;;;;10.17;85.27;102645.66;4947497;28;20045;-77
2021/05/29 03:43:51;;;;;;;0.20;0.20;;;;;;;10.23;85.53;102661.88;4984327;28;20042;-76
2021/05/29 03:46:17;;;;;;;0.30;0.30;;;;;;;10.11;84.84;102633.78;4964063;28;20038;-76
2021/05/29 03:48:42;;;;;;;0.35;0.30;;;;;;;10.10;84.71;102639.91;4990810;28;20057;-77
2021/05/29 03:51:08;;;;;;;0.30;0.30;;;;;;;10.06;84.89;102627.13;4982328;28;20137;-77
2021/05/29 03:53:33;;;;;;;0.32;0.30;;;;;;;10.16;84.66;102637.00;4979636;28;20440;-77
2021/05/29 03:55:59;;;;;;;0.30;0.30;;;;;;;10.32;84.73;102659.75;4952773;28;20031;-77
2021/05/29 03:58:24;;;;;;;0.30;0.30;;;;;;;10.27;85.03;102659.97;4969316;28;20460;-76
2021/05/29 04:00:50;;;;;;;0.30;0.30;;;;;;;10.25;84.13;102656.59;4982137;28;20042;-76
2021/05/29 04:03:16;;;;;;;0.40;0.40;;;;;;;10.18;84.65;102640.38;4967585;28;20051;-78
2021/05/29 04:05:41;;;;;;;0.30;0.30;;;;;;;10.25;83.84;102654.84;4999606;28;20035;-76
2021/05/29 04:08:07;;;;;;;0.30;0.30;;;;;;;10.22;84.39;102651.50;4962698;28;20418;-76
2021/05/29 04:10:35;;;;;;;0.32;0.32;;;;;;;10.28;84.21;102652.09;4983560;28;20041;-77
2021/05/29 04:13:00;;;;;;;0.30;0.30;;;;;;;10.26;84.58;102661.75;4966857;28;20065;-76
2021/05/29 04:15:26;;;;;;;0.30;0.30;;;;;;;10.32;84.84;102667.56;4985494;28;20154;-77
2021/05/29 04:17:52;;;;;;;0.30;0.30;;;;;;;10.35;84.29;102667.41;4975587;28;20038;-77
2021/05/29 04:20:20;;;;;;;0.40;0.40;;;;;;;10.24;84.17;102655.75;4986066;28;20149;-78
2021/05/29 04:22:46;;;;;;;0.30;0.30;;;;;;;10.36;84.25;102672.53;4968863;28;20034;-78
2021/05/29 04:25:20;;;;;;;0.20;0.20;;;;;;;10.29;84.53;102664.19;5010658;28;20349;-77
2021/05/29 04:27:46;;;;;;;0.30;0.30;;;;;;;10.28;84.36;102672.06;4987073;28;20041;-77
2021/05/29 04:30:18;;;;;;;0.30;0.30;;;;;;;10.37;84.41;102674.22;4966266;28;20054;-76
2021/05/29 04:32:44;;;;;;;0.30;0.30;;;;;;;10.13;84.64;102641.53;4999939;28;20034;-76
2021/05/29 04:35:10;;;;;;;0.20;0.20;;;;;;;10.38;84.39;102677.69;4970486;28;20038;-74
2021/05/29 04:37:38;;;;;;;0.20;0.20;;;;;;;10.45;84.26;102676.50;4985717;28;20499;-75
2021/05/29 04:40:04;;;;;;;0.40;0.40;;;;;;;10.44;84.66;102674.81;5004266;28;20065;-74
2021/05/29 04:42:30;;;;;;;0.30;0.30;;;;;;;10.34;84.56;102674.38;4976802;28;20050;-74
2021/05/29 04:44:55;;;;;;;0.30;0.30;;;;;;;10.41;84.76;102674.91;4972099;28;20096;-74
2021/05/29 04:47:21;;;;;;;0.35;0.30;;;;;;;10.39;84.88;102677.59;4984804;28;20084;-75
2021/05/29 04:49:46;;;;;;;0.30;0.30;;;;;;;10.17;84.68;102636.09;4970468;28;20104;-74
2021/05/29 04:52:12;;;;;;;0.30;0.30;;;;;;;10.35;85.35;102659.59;5003359;28;20480;-75
2021/05/29 04:54:39;;;;;;;0.20;0.20;;;;;;;10.45;84.96;102673.88;4965531;28;20042;-74
2021/05/29 04:57:05;;;;;;;0.28;0.28;;;;;;;10.43;85.33;102673.13;4993982;28;20090;-75
2021/05/29 04:59:31;;;;;;;0.40;0.32;;;;;;;10.42;85.26;102671.44;4983901;28;20428;-75
2021/05/29 05:01:57;;;;;;;0.30;0.30;;;;;;;10.45;84.96;102664.31;4968057;28;20046;-75
2021/05/29 05:04:22;;;;;;;0.30;0.30;;;;;;;10.54;85.55;102676.03;5002203;28;20073;-76
2021/05/29 05:06:48;;;;;;;0.65;0.30;;;;;;;10.66;84.96;102683.25;4952160;28;20386;-76
2021/05/29 05:09:13;;;;;;;0.30;0.30;;;;;;;10.53;85.11;102662.16;4985564;28;20797;-75
2021/05/29 05:11:39;;;;;;;0.25;0.25;;;;;;;10.56;85.51;102664.63;4947390;28;20045;-75
2021/05/29 05:14:05;;;;;;;0.30;0.30;;;;;;;10.70;84.75;102678.75;4986952;28;20101;-76
2021/05/29 05:16:30;;;;;;;0.30;0.28;;;;;;;10.82;84.41;102689.41;4952776;28;20034;-75
2021/05/29 05:18:56;;;;;;;0.22;0.22;;;;;;;10.82;84.55;102688.56;4986598;28;20026;-74
2021/05/29 05:21:22;;;;;;;0.20;0.20;;;;;;;10.79;84.56;102696.53;4962920;28;20304;-74
2021/05/29 05:23:50;;;;;;;0.30;0.30;;;;;;;10.70;84.59;102671.75;4985881;28;20030;-75
2021/05/29 05:26:17;;;;;;;0.20;0.20;;;;;;;10.75;85.20;102695.81;4975192;28;20049;-76
2021/05/29 05:28:43;;;;;;;0.30;0.30;;;;;;;10.65;85.67;102665.09;4978367;28;20038;-76
2021/05/29 05:31:08;;;;;;;0.30;0.30;;;;;;;10.86;84.59;102698.75;4954464;28;20085;-76
2021/05/29 05:33:40;;;;;;;0.20;0.20;;;;;;;10.76;84.14;102678.44;4970278;28;20037;-76
2021/05/29 05:36:09;;;;;;;0.35;0.35;;;;;;;10.92;84.37;102697.59;4989583;28;20044;-76
2021/05/29 05:38:37;;;;;;;0.20;0.20;;;;;;;10.88;84.43;102688.25;4972104;28;20093;-75
2021/05/29 05:41:03;;;;;;;0.30;0.30;;;;;;;10.81;84.25;102682.50;5005903;28;20447;-75
2021/05/29 05:43:29;;;;;;;0.20;0.20;;;;;;;10.98;84.02;102706.91;4967874;28;20126;-76
2021/05/29 05:45:55;;;;;;;0.30;0.30;;;;;;;10.95;84.34;102704.44;4990177;28;20493;-74
2021/05/29 05:48:21;;;;;;;0.30;0.30;;;;;;;11.00;84.43;102700.69;4977454;28;20564;-76
2021/05/29 05:50:57;;;;;;;0.40;0.40;;;;;;;11.02;84.57;102704.06;4998288;28;20477;-74
2021/05/29 05:53:27;;;;;;;0.30;0.30;;;;;;;10.92;83.65;102671.53;4974204;28;20042;-76
2021/05/29 05:55:59;;;;;;;0.28;0.28;;;;;;;10.62;83.78;102626.19;4985274;28;20133;-75
2021/05/29 05:58:25;;;;;;;0.30;0.30;;;;;;;10.89;83.20;102659.50;4980843;28;20038;-75
2021/05/29 06:00:51;;;;;;;0.30;0.30;;;;;;;11.15;83.91;102712.97;4986835;28;20042;-75
2021/05/29 06:03:19;;;;;;;0.30;0.30;;;;;;;10.77;83.41;102638.41;4984468;28;20057;-75
2021/05/29 06:05:44;;;;;;;0.20;0.20;;;;;;;10.86;83.68;102644.03;4938116;28;20035;-75
2021/05/29 06:08:10;;;;;;;0.20;0.20;;;;;;;11.32;82.79;102703.44;4967277;28;20113;-75
2021/05/29 06:10:35;;;;;;;0.20;0.20;;;;;;;11.33;82.60;102695.53;4971348;28;20039;-76
2021/05/29 06:13:01;;;;;;;0.20;0.20;;;;;;;11.20;81.51;102668.41;4955524;28;20136;-75
2021/05/29 06:18:33;;;;;;;0.30;0.30;;;;;;;11.36;81.33;102691.94;4981722;28;20073;-75
2021/05/29 06:20:59;;;;;;;0.30;0.30;;;;;;;11.01;79.53;102633.75;4966934;28;20538;-75
2021/05/29 06:23:25;;;;;;;0.30;0.30;;;;;;;11.49;80.01;102706.03;4967468;28;20125;-75
2021/05/29 06:25:50;;;;;;;0.20;0.20;;;;;;;11.51;80.04;102691.13;4968519;28;20543;-74
2021/05/29 06:28:16;;;;;;;0.20;0.20;;;;;;;11.63;79.55;102713.97;4983818;28;20047;-74
2021/05/29 06:30:41;;;;;;;0.20;0.20;;;;;;;11.30;79.90;102653.94;4981222;28;20116;-76
2021/05/29 06:33:07;;;;;;;0.30;0.30;;;;;;;11.51;79.70;102678.09;4987708;28;20101;-76
2021/05/29 06:35:36;;;;;;;0.30;0.30;;;;;;;11.72;80.37;102716.09;4956198;28;20057;-75
2021/05/29 06:38:01;;;;;;;0.30;0.30;;;;;;;11.34;80.88;102633.78;4973359;28;20026;-76
2021/05/29 06:40:27;;;;;;;0.28;0.28;;;;;;;11.86;81.00;102711.97;4952847;28;20053;-76
2021/05/29 06:42:54;;;;;;;0.30;0.30;;;;;;;11.82;79.37;102687.75;4990137;28;20045;-75
2021/05/29 06:45:19;;;;;;;0.30;0.30;;;;;;;11.74;78.72;102656.00;4971103;28;20039;-76
2021/05/29 06:47:45;;;;;;;0.20;0.20;;;;;;;12.11;78.45;102725.38;4941364;28;20844;-76
2021/05/29 06:50:11;;;;;;;0.30;0.30;;;;;;;11.81;77.68;102696.53;4986391;28;20042;-76
2021/05/29 06:52:41;;;;;;;0.35;0.32;;;;;;;12.05;77.80;102728.31;4968088;28;20051;-76
2021/05/29 07:00:36;;;;;;;0.30;0.30;;;;;;;11.85;78.65;102716.34;4985415;28;19921;-75
2021/05/29 07:03:05;;;;;;;0.30;0.30;;;;;;;11.92;78.47;102720.31;4964051;28;20047;-74
2021/05/29 07:05:30;;;;;;;0.20;0.20;;;;;;;11.54;79.46;102667.50;5001380;28;20476;-75
2021/05/29 07:07:56;;;;;;;0.20;0.20;;;;;;;11.89;79.22;102722.25;4970597;28;20125;-74
2021/05/29 07:10:23;;;;;;;0.30;0.30;;;;;;;11.82;80.05;102733.91;4985021;28;20046;-74
2021/05/29 07:12:48;;;;;;;0.30;0.30;;;;;;;11.76;80.82;102725.44;4971172;28;20038;-75
2021/05/29 07:15:15;;;;;;;0.30;0.30;;;;;;;11.89;80.24;102730.06;4953081;28;20512;-74
2021/05/29 07:17:43;;;;;;;0.35;0.35;;;;;;;11.55;79.23;102682.22;4979281;28;20038;-75
2021/05/29 07:20:09;;;;;;;0.30;0.30;;;;;;;11.94;77.87;102728.88;4967314;28;20489;-75
2021/05/29 07:22:36;;;;;;;0.30;0.30;;;;;;;12.15;78.12;102713.00;4933577;28;20034;-76
2021/05/29 07:25:05;;;;;;;0.40;0.40;;;;;;;12.30;78.91;102686.88;4946984;28;20046;-76
2021/05/29 07:27:30;;;;;;;0.38;0.38;;;;;;;12.43;77.87;102683.59;4972971;28;20038;-77
2021/05/29 07:29:56;;;;;;;0.30;0.30;;;;;;;12.87;76.92;102705.41;4953138;28;20481;-75
2021/05/29 07:32:22;;;;;;;0.20;0.20;;;;;;;13.05;74.13;102736.66;4984192;28;20046;-75
2021/05/29 07:34:49;;;;;;;0.30;0.30;;;;;;;12.58;73.29;102677.50;4954311;28;20089;-75
2021/05/29 07:37:15;;;;;;;0.22;0.22;;;;;;;12.43;73.60;102701.88;4959101;28;20030;-76
2021/05/29 07:39:40;;;;;;;0.28;0.28;;;;;;;12.37;74.49;102711.72;4970050;28;20053;-77
2021/05/29 07:42:06;;;;;;;0.32;0.30;;;;;;;12.63;74.27;102751.25;4972116;28;20060;-76
2021/05/29 07:44:31;;;;;;;0.20;0.20;;;;;;;12.40;75.16;102708.13;4988948;28;20034;-76
2021/05/29 07:46:57;;;;;;;0.30;0.30;;;;;;;12.51;75.96;102728.41;4975226;28;22065;-75
2021/05/29 07:49:22;;;;;;;0.20;0.20;;;;;;;12.66;74.17;102757.16;4972319;28;20049;-75
2021/05/29 07:51:48;;;;;;;0.30;0.30;;;;;;;12.58;72.94;102733.22;4976144;28;20501;-75
2021/05/29 07:54:14;;;;;;;0.22;0.22;;;;;;;12.77;72.21;102756.56;4975401;28;20267;-75
2021/05/29 07:56:39;;;;;;;0.32;0.30;;;;;;;12.90;73.89;102762.75;4997005;28;20082;-75
2021/05/29 07:59:17;;;;;;;0.20;0.20;;;;;;;12.88;73.50;102764.63;4975052;28;20058;-76
2021/05/29 08:01:42;;;;;;;0.20;0.20;;;;;;;13.06;71.92;102759.25;4974099;28;20049;-74
2021/05/29 08:04:08;;;;;;;0.20;0.20;;;;;;;12.97;73.37;102753.66;4970602;28;20058;-75
2021/05/29 08:06:38;;;;;;;0.20;0.20;;;;;;;13.01;72.31;102757.75;4962803;28;20548;-75
2021/05/29 08:09:08;;;;;;;0.30;0.30;;;;;;;13.10;73.33;102755.53;4973068;28;20127;-77
2021/05/29 08:11:34;;;;;;;0.20;0.20;;;;;;;13.01;72.69;102757.75;4985734;28;20041;-75
2021/05/29 08:14:00;;;;;;;0.30;0.30;;;;;;;12.94;73.40;102759.06;4951239;28;20038;-75
2021/05/29 08:16:26;;;;;;;0.20;0.20;;;;;;;12.92;72.12;102750.44;4987526;28;20026;-75
2021/05/29 08:18:53;;;;;;;0.20;0.20;;;;;;;13.09;71.82;102777.38;4954171;28;20508;-73
2021/05/29 08:21:19;;;;;;;0.20;0.20;;;;;;;13.15;71.61;102762.22;4985134;28;20080;-74
2021/05/29 08:23:44;;;;;;;0.20;0.20;;;;;;;13.10;70.86;102755.53;4952651;28;20141;-75
2021/05/29 08:26:10;;;;;;;0.10;0.10;;;;;;;13.11;71.70;102754.63;4985440;28;20047;-74
2021/05/29 08:28:38;;;;;;;0.20;0.20;;;;;;;13.20;71.68;102767.19;4960069;28;20049;-74
2021/05/29 08:31:04;;;;;;;0.30;0.30;;;;;;;13.38;70.72;102773.13;4988804;28;20054;-75
2021/05/29 08:33:30;;;;;;;0.30;0.30;;;;;;;13.51;69.97;102777.56;4972330;28;20157;-75
2021/05/29 08:35:56;;;;;;;0.20;0.20;;;;;;;13.42;70.64;102759.75;4979362;28;20384;-75
2021/05/29 08:38:22;;;;;;;0.20;0.20;;;;;;;13.55;70.60;102750.25;4983596;28;20040;-75
2021/05/29 08:40:47;;;;;;;0.20;0.20;;;;;;;13.78;68.28;102766.34;4935910;28;20053;-76
2021/05/29 08:43:13;;;;;;;0.30;0.30;;;;;;;13.74;68.48;102743.91;4986966;28;20046;-76
2021/05/29 08:45:39;;;;;;;0.30;0.30;;;;;;;14.05;68.62;102777.78;4971514;28;20105;-76
2021/05/29 08:48:05;;;;;;;0.30;0.30;;;;;;;14.11;67.98;102769.53;4984280;28;20523;-76
2021/05/29 08:50:31;;;;;;;0.30;0.30;;;;;;;14.14;67.44;102765.88;4959116;28;20109;-76
2021/05/29 08:52:57;;;;;;;0.20;0.20;;;;;;;14.12;68.14;102749.41;4991094;28;20038;-76
2021/05/29 08:55:23;;;;;;;0.20;0.20;;;;;;;14.51;64.11;102764.44;4974300;28;20507;-76
2021/05/29 08:57:49;;;;;;;0.30;0.30;;;;;;;15.10;64.37;102792.06;4976628;28;20025;-76
2021/05/29 09:00:22;;;;;;;0.20;0.20;;;;;;;15.15;63.76;102746.28;4982355;28;20117;-76
2021/05/29 09:03:05;;;;;;;0.20;0.20;;;;;;;15.15;62.25;102778.63;4979300;28;20030;-76
2021/05/29 09:05:41;;;;;;;0.30;0.30;;;;;;;15.03;61.16;102787.28;4967770;28;20334;-75
2021/05/29 09:08:11;;;;;;;0.25;0.25;;;;;;;14.97;61.82;102770.19;4978585;28;20038;-74
2021/05/29 09:10:50;;;;;;;0.20;0.20;;;;;;;15.09;62.36;102792.16;4985401;28;20046;-76
2021/05/29 09:13:24;;;;;;;0.20;0.20;;;;;;;14.92;59.03;102764.41;4968024;28;20045;-76
2021/05/29 09:15:59;;;;;;;0.20;0.20;;;;;;;15.10;61.66;102754.47;4986244;28;20027;-74
2021/05/29 09:18:29;;;;;;;0.20;0.20;;;;;;;15.30;61.05;102797.75;4967256;28;20512;-73
2021/05/29 09:21:34;;;;;;;0.20;0.20;;;;;;;15.30;62.09;102792.50;4985505;28;20070;-74
2021/05/29 09:24:20;;;;;;;0.20;0.20;;;;;;;15.27;60.22;102805.84;4976395;28;20042;-75
2021/05/29 09:26:45;;;;;;;0.20;0.20;;;;;;;15.18;61.53;102799.41;4985315;28;20086;-74
2021/05/29 09:29:17;;;;;;;0.20;0.20;;;;;;;15.17;63.27;102799.50;4965398;28;20113;-75
2021/05/29 09:31:59;;;;;;;0.20;0.20;;;;;;;15.16;58.67;102787.34;4986785;28;20046;-74
2021/05/29 09:34:42;;;;;;;0.20;0.20;;;;;;;15.15;60.11;102810.13;4965644;28;20137;-74
2021/05/29 09:37:11;;;;;;;0.15;0.15;;;;;;;15.26;59.17;102801.50;4983560;28;20058;-74
2021/05/29 09:39:39;;;;;;;0.30;0.30;;;;;;;15.22;61.54;102813.16;4962085;28;20038;-74
2021/05/29 09:42:08;;;;;;;0.30;0.20;;;;;;;15.11;62.35;102817.34;4984899;28;20034;-75
2021/05/29 09:44:35;;;;;;;0.30;0.30;;;;;;;14.95;63.46;102784.34;4966637;28;20046;-76
2021/05/29 09:47:04;;;;;;;0.20;0.20;;;;;;;15.02;62.93;102793.47;4982919;28;20069;-75
2021/05/29 09:49:52;;;;;;;0.20;0.20;;;;;;;15.25;62.88;102816.41;4966562;28;20201;-76
2021/05/29 09:52:29;;;;;;;0.15;0.15;;;;;;;15.28;61.96;102799.66;4983590;28;20030;-76
2021/05/29 09:54:58;;;;;;;0.30;0.30;;;;;;;15.06;59.93;102776.59;4962633;28;20326;-75
2021/05/29 09:57:24;;;;;;;0.20;0.20;;;;;;;15.37;61.86;102817.41;4982349;28;20027;-75
2021/05/29 09:59:57;;;;;;;0.20;0.20;;;;;;;15.46;61.92;102821.22;4935434;28;20066;-75
2021/05/29 10:02:24;;;;;;;0.30;0.30;;;;;;;15.39;63.46;102821.59;4985439;28;20503;-76
2021/05/29 10:04:54;;;;;;;0.10;0.10;;;;;;;15.21;60.95;102807.06;4967857;28;20797;-75
2021/05/29 10:07:22;;;;;;;0.20;0.20;;;;;;;15.34;61.19;102815.81;4985715;28;20027;-76
2021/05/29 10:09:48;;;;;;;0.20;0.20;;;;;;;15.34;59.89;102813.19;4998328;28;20595;-76
2021/05/29 10:12:14;;;;;;;0.40;0.20;;;;;;;15.40;62.26;102796.19;4966406;28;20113;-76
2021/05/29 10:14:41;;;;;;;0.20;0.20;;;;;;;15.54;60.65;102829.41;4982442;28;20031;-76
2021/05/29 10:17:09;;;;;;;0.13;0.13;;;;;;;15.61;58.33;102828.91;4986902;28;20041;-75
2021/05/29 10:19:38;;;;;;;0.10;0.10;;;;;;;15.70;60.78;102832.72;4980688;28;20045;-75
2021/05/29 10:22:15;;;;;;;0.20;0.20;;;;;;;15.77;60.41;102836.59;4987762;28;20042;-75
2021/05/29 10:24:41;;;;;;;0.22;0.22;;;;;;;15.79;59.47;102837.34;4986304;28;20066;-75
2021/05/29 10:27:12;;;;;;;0.25;0.25;;;;;;;15.77;60.66;102823.47;5000086;28;20113;-75
2021/05/29 10:29:39;;;;;;;0.15;0.15;;;;;;;15.97;58.13;102835.22;4999755;28;20046;-75
2021/05/29 10:32:14;;;;;;;0.10;0.10;;;;;;;15.79;59.65;102823.34;4987205;28;20026;-74
2021/05/29 10:35:04;;;;;;;0.20;0.20;;;;;;;15.90;59.65;102832.19;4985612;28;20042;-74
2021/05/29 10:37:53;;;;;;;0.20;0.20;;;;;;;15.88;60.07;102823.56;4990344;28;20042;-74
2021/05/29 10:40:35;;;;;;;0.20;0.20;;;;;;;15.89;59.29;102820.00;4985980;28;20503;-75
2021/05/29 10:43:07;;;;;;;0.20;0.20;;;;;;;15.87;59.67;102821.06;4991080;28;20046;-75
2021/05/29 10:45:40;;;;;;;0.13;0.13;;;;;;;15.90;59.76;102833.97;4988805;28;20073;-75
2021/05/29 10:48:12;;;;;;;0.20;0.20;;;;;;;15.97;61.78;102833.44;4984179;28;20524;-75
2021/05/29 10:50:43;;;;;;;0.20;0.20;;;;;;;15.88;57.88;102828.84;4989420;28;20100;-75
2021/05/29 10:53:30;;;;;;;0.20;0.20;;;;;;;15.99;61.13;102842.09;4987361;28;20042;-74
2021/05/29 10:56:16;;;;;;;0.20;0.20;;;;;;;16.02;60.22;102834.00;4981976;28;20444;-75
2021/05/29 10:58:54;;;;;;;0.20;0.20;;;;;;;16.10;62.15;102837.84;4986799;28;20458;-75
2021/05/29 11:01:20;;;;;;;0.20;0.20;;;;;;;16.00;60.26;102819.28;4990298;28;20038;-74
2021/05/29 11:03:46;;;;;;;0.20;0.20;;;;;;;16.13;60.47;102830.59;4955593;28;20474;-75
2021/05/29 11:06:32;;;;;;;0.20;0.20;;;;;;;16.49;58.22;102845.56;4987574;28;20059;-74
2021/05/29 11:09:00;;;;;;;0.20;0.20;;;;;;;16.38;58.77;102837.63;4984021;28;20037;-75
2021/05/29 11:14:14;;;;;;;0.20;0.20;;;;;;;16.61;61.57;102812.31;4983974;28;20077;-74
2021/05/29 11:16:46;;;;;;;0.10;0.10;;;;;;;16.76;57.89;102840.19;4988454;28;20038;-74
2021/05/29 11:19:28;;;;;;;0.30;0.30;;;;;;;16.92;56.12;102822.31;4988267;28;20037;-75
2021/05/29 11:21:57;;;;;;;0.20;0.20;;;;;;;17.27;58.47;102826.78;4996569;28;20096;-73
2021/05/29 11:24:23;;;;;;;0.10;0.10;;;;;;;17.21;57.18;102840.38;4991270;28;20071;-73
2021/05/29 11:26:48;;;;;;;0.20;0.20;;;;;;;16.78;57.60;102838.28;4977187;28;20042;-72
2021/05/29 11:29:14;;;;;;;0.20;0.20;;;;;;;16.57;58.22;102840.63;4987329;28;20084;-73
2021/05/29 11:31:44;;;;;;;0.13;0.13;;;;;;;16.50;60.41;102849.03;4972624;28;20042;-74
2021/05/29 11:34:09;;;;;;;0.20;0.20;;;;;;;16.38;59.40;102840.25;4969749;28;20128;-72
2021/05/29 11:36:39;;;;;;;0.10;0.10;;;;;;;16.53;59.02;102854.13;4987479;28;20058;-73
2021/05/29 11:39:10;;;;;;;0.20;0.20;;;;;;;16.50;59.27;102856.94;4971800;28;20113;-73
2021/05/29 11:41:36;;;;;;;0.15;0.15;;;;;;;16.46;58.35;102802.88;4983364;28;20042;-73
2021/05/29 11:44:02;;;;;;;0.20;0.20;;;;;;;16.73;58.30;102822.00;4984045;28;20038;-72